Time;durP1;ratioP1;P1;durP2;ratioP2;P2;SDS_P1;SDS_P2;PMS_P1;PMS_P2;Temp;Humidity;BMP_temperature;BMP_pressure;BME280_temperature;BME280_humidity;BME280_pressure;Samples;Min_cycle;Max_cycle;Signal;HPM_P1;HPM_P2
2022/01/28 00:00:41;;;;;;;;;;;5.50;99.90;;;;;;5045944;28;19920;-71
2022/01/28 00:03:09;;;;;;;;;;;5.40;99.90;;;;;;5044907;28;20381;-70
2022/01/28 00:05:36;;;;;;;;;;;5.40;99.90;;;;;;5044569;28;19921;-71
2022/01/28 00:08:02;;;;;;;;;;;5.40;99.90;;;;;;5042277;28;19917;-70
2022/01/28 00:10:28;;;;;;;;;;;5.40;99.90;;;;;;5045523;28;19917;-70
2022/01/28 00:18:47;;;;;;;;;;;5.50;99.90;;;;;;5004569;28;20321;-71
2022/01/28 00:38:09;;;;;;;;;;;5.50;99.90;;;;;;5068269;28;19959;-71
2022/01/28 00:40:31;;;;;;;;;;;5.50;99.90;;;;;;5068703;28;20273;-70
2022/01/28 00:42:57;;;;;;;;;;;5.50;99.90;;;;;;5070455;28;19939;-70
2022/01/28 00:45:23;;;;;;;;;;;5.60;99.90;;;;;;5075462;28;20316;-71
2022/01/28 00:47:48;;;;;;;;;;;5.70;99.90;;;;;;5075514;28;19947;-71
2022/01/28 00:50:14;;;;;;;;;;;5.70;99.90;;;;;;5074618;28;19916;-70
2022/01/28 00:52:40;;;;;;;;;;;5.70;99.90;;;;;;5075424;28;19918;-70
2022/01/28 00:55:06;;;;;;;;;;;5.80;99.90;;;;;;5075180;28;19924;-70
2022/01/28 00:57:31;;;;;;;;;;;5.70;99.90;;;;;;5075070;28;19919;-70
2022/01/28 00:59:57;;;;;;;;;;;5.60;99.90;;;;;;5074178;28;19920;-70
2022/01/28 01:02:22;;;;;;;;;;;5.70;99.90;;;;;;5075130;28;19999;-70
2022/01/28 01:04:48;;;;;;;;;;;5.70;99.90;;;;;;5075130;28;19913;-71
2022/01/28 01:07:14;;;;;;;;;;;5.80;99.90;;;;;;5073876;28;20235;-70
2022/01/28 01:09:39;;;;;;;;;;;5.90;99.90;;;;;;5074818;28;19959;-70
2022/01/28 01:12:05;;;;;;;;;;;5.80;99.90;;;;;;5074726;28;19912;-70
2022/01/28 01:14:30;;;;;;;;;;;5.80;99.90;;;;;;5072894;28;19923;-70
2022/01/28 01:19:24;;;;;;;;;;;5.80;99.90;;;;;;5072833;28;20007;-70
2022/01/28 01:21:56;;;;;;;;;;;5.80;99.90;;;;;;5068835;28;20306;-70
2022/01/28 01:24:24;;;;;;;;;;;5.80;99.90;;;;;;5074009;28;20213;-70
2022/01/28 01:26:49;;;;;;;;;;;5.80;99.90;;;;;;5073121;28;20223;-70
2022/01/28 01:29:18;;;;;;;;;;;5.70;99.90;;;;;;5090238;28;19912;-70
2022/01/28 01:31:44;;;;;;;;;;;5.70;99.90;;;;;;5072885;28;19921;-70
2022/01/28 01:34:16;;;;;;;;;;;5.70;99.90;;;;;;5074598;28;19919;-70
2022/01/28 01:36:42;;;;;;;;;;;5.70;99.90;;;;;;5072897;28;19916;-70
2022/01/28 01:39:08;;;;;;;;;;;5.70;99.90;;;;;;5070980;28;19939;-70
2022/01/28 01:41:40;;;;;;;;;;;5.70;99.90;;;;;;5065334;28;19917;-70
2022/01/28 01:44:14;;;;;;;;;;;5.70;99.90;;;;;;5072055;28;19919;-70
2022/01/28 01:52:00;;;;;;;;;;;5.60;99.90;;;;;;5072882;28;20007;-69
2022/01/28 01:52:28;;;;;;;;;;;5.80;99.90;;;;;;5074794;28;20074;-70
2022/01/28 01:54:53;;;;;;;;;;;5.80;99.90;;;;;;5073975;28;20383;-70
2022/01/28 01:57:19;;;;;;;;;;;5.70;99.90;;;;;;5074569;28;20011;-70
2022/01/28 01:59:47;;;;;;;;;;;5.80;99.90;;;;;;5073478;28;19923;-70
2022/01/28 02:02:13;;;;;;;;;;;5.80;99.90;;;;;;5072886;28;19913;-70
2022/01/28 02:04:38;;;;;;;;;;;5.80;99.90;;;;;;5065434;28;19917;-70
2022/01/28 02:07:04;;;;;;;;;;;5.70;99.90;;;;;;5067629;28;19920;-71
2022/01/28 02:09:30;;;;;;;;;;;5.60;99.90;;;;;;5073120;28;19920;-70
2022/01/28 02:11:55;;;;;;;;;;;5.60;99.90;;;;;;5074225;28;19921;-70
2022/01/28 02:14:21;;;;;;;;;;;5.50;99.90;;;;;;5072978;28;19987;-70
2022/01/28 02:16:47;;;;;;;;;;;5.50;99.90;;;;;;5074366;28;19964;-71
2022/01/28 02:19:12;;;;;;;;;;;5.60;99.90;;;;;;5073848;28;20242;-71
2022/01/28 02:21:51;;;;;;;;;;;5.60;99.90;;;;;;5074605;28;19921;-70
2022/01/28 02:24:21;;;;;;;;;;;5.60;99.90;;;;;;5066636;28;19962;-70
2022/01/28 02:26:46;;;;;;;;;;;5.60;99.90;;;;;;5074652;28;19925;-71
2022/01/28 02:29:15;;;;;;;;;;;5.70;99.90;;;;;;5074782;28;19920;-70
2022/01/28 02:31:41;;;;;;;;;;;5.70;99.90;;;;;;5077795;28;19913;-70
2022/01/28 02:34:10;;;;;;;;;;;5.60;99.90;;;;;;5077187;28;19916;-71
2022/01/28 02:36:36;;;;;;;;;;;5.70;99.90;;;;;;5078741;28;19939;-71
2022/01/28 02:39:02;;;;;;;;;;;5.70;99.90;;;;;;5076964;28;19912;-70
2022/01/28 02:41:33;;;;;;;;;;;5.80;99.90;;;;;;5060604;28;19978;-70
2022/01/28 02:44:12;;;;;;;;;;;5.60;99.90;;;;;;5056175;28;19928;-70
2022/01/28 02:46:39;;;;;;;;;;;5.70;99.90;;;;;;5061008;28;19925;-70
2022/01/28 02:49:10;;;;;;;;;;;5.70;99.90;;;;;;5027403;28;19913;-70
2022/01/28 02:51:36;;;;;;;;;;;5.60;99.90;;;;;;5058927;28;19962;-70
2022/01/28 02:54:12;;;;;;;;;;;5.50;99.90;;;;;;5041364;28;19909;-71
2022/01/28 02:56:40;;;;;;;;;;;5.50;99.90;;;;;;5042040;28;19917;-70
2022/01/28 02:59:06;;;;;;;;;;;5.60;99.90;;;;;;5059355;28;19948;-70
2022/01/28 03:01:32;;;;;;;;;;;5.60;99.90;;;;;;5059870;28;20317;-71
2022/01/28 03:04:01;;;;;;;;;;;5.60;99.90;;;;;;5058326;28;19920;-70
2022/01/28 03:06:26;;;;;;;;;;;5.50;99.90;;;;;;5061921;28;20247;-70
2022/01/28 03:09:12;;;;;;;;;;;5.50;99.90;;;;;;5042834;28;19913;-70
2022/01/28 03:16:51;;;;;;;;;;;5.30;99.90;;;;;;5060422;28;19917;-70
2022/01/28 03:19:20;;;;;;;;;;;5.20;99.90;;;;;;5058698;28;19913;-70
2022/01/28 03:21:54;;;;;;;;;;;5.20;99.90;;;;;;5049060;28;19991;-70
2022/01/28 03:24:20;;;;;;;;;;;5.10;99.90;;;;;;5063061;28;20367;-70
2022/01/28 03:26:51;;;;;;;;;;;5.00;99.90;;;;;;5057507;28;20027;-70
2022/01/28 03:29:17;;;;;;;;;;;5.10;99.90;;;;;;5058703;28;19909;-70
2022/01/28 03:31:42;;;;;;;;;;;5.00;99.90;;;;;;5057463;28;19919;-71
2022/01/28 03:34:08;;;;;;;;;;;4.90;99.90;;;;;;5057252;28;19921;-70
2022/01/28 03:36:34;;;;;;;;;;;4.90;99.90;;;;;;5041599;28;19920;-70
2022/01/28 03:38:59;;;;;;;;;;;4.90;99.90;;;;;;5064195;28;19917;-70
2022/01/28 03:41:25;;;;;;;;;;;4.90;99.90;;;;;;5075319;28;19956;-70
2022/01/28 03:43:51;;;;;;;;;;;4.80;99.90;;;;;;5075934;28;19924;-70
2022/01/28 03:46:17;;;;;;;;;;;4.90;99.90;;;;;;5076868;28;20338;-70
2022/01/28 03:48:42;;;;;;;;;;;4.90;99.90;;;;;;5076681;28;19913;-70
2022/01/28 03:51:08;;;;;;;;;;;4.90;99.90;;;;;;5076986;28;20006;-70
2022/01/28 03:53:34;;;;;;;;;;;4.80;99.90;;;;;;5076737;28;19917;-70
2022/01/28 03:55:59;;;;;;;;;;;4.80;99.90;;;;;;5076801;28;19922;-70
2022/01/28 03:58:25;;;;;;;;;;;4.70;99.90;;;;;;5076828;28;19916;-70
2022/01/28 04:00:51;;;;;;;;;;;4.80;99.90;;;;;;5076768;28;20212;-70
2022/01/28 04:11:32;;;;;;;;;;;4.70;99.90;;;;;;5077079;28;20358;-71
2022/01/28 04:14:07;;;;;;;;;;;4.70;99.90;;;;;;5075301;28;19916;-70
2022/01/28 04:19:16;;;;;;;;;;;4.80;99.90;;;;;;5075503;28;19936;-70
2022/01/28 04:21:42;;;;;;;;;;;4.80;99.90;;;;;;5075921;28;20300;-70
2022/01/28 04:24:07;;;;;;;;;;;4.90;99.90;;;;;;5075413;28;19920;-70
2022/01/28 04:26:33;;;;;;;;;;;5.00;99.90;;;;;;5075995;28;19923;-71
2022/01/28 04:28:58;;;;;;;;;;;5.00;99.90;;;;;;5075803;28;19920;-70
2022/01/28 04:31:24;;;;;;;;;;;5.00;99.90;;;;;;5075717;28;19913;-71
2022/01/28 04:33:52;;;;;;;;;;;5.00;99.90;;;;;;5076072;28;19913;-71
2022/01/28 04:36:19;;;;;;;;;;;5.10;99.90;;;;;;5074777;28;19920;-70
2022/01/28 04:38:58;;;;;;;;;;;5.10;99.90;;;;;;5075918;28;20270;-71
2022/01/28 04:41:34;;;;;;;;;;;5.10;99.90;;;;;;5068261;28;19924;-70
2022/01/28 04:44:08;;;;;;;;;;;5.20;99.90;;;;;;5075575;28;19966;-71
2022/01/28 04:46:59;;;;;;;;;;;5.10;99.90;;;;;;5074860;28;19920;-71
2022/01/28 04:50:09;;;;;;;;;;;5.20;99.90;;;;;;5069868;28;19939;-70
2022/01/28 04:55:23;;;;;;;;;;;5.10;99.90;;;;;;5059478;28;19916;-70
2022/01/28 04:58:09;;;;;;;;;;;5.10;99.90;;;;;;5075484;28;20014;-70
2022/01/28 05:03:35;;;;;;;;;;;5.10;99.90;;;;;;5074964;28;19916;-71
2022/01/28 05:27:20;;;;;;;;;;;4.80;99.90;;;;;;5073452;28;19920;-70
2022/01/28 05:29:45;;;;;;;;;;;4.90;99.90;;;;;;5074871;28;19982;-70
2022/01/28 05:32:11;;;;;;;;;;;4.80;99.90;;;;;;5074434;28;19961;-71
2022/01/28 05:34:37;;;;;;;;;;;4.70;99.90;;;;;;5074476;28;19923;-70
2022/01/28 05:37:03;;;;;;;;;;;4.70;99.90;;;;;;5073564;28;19962;-70
2022/01/28 05:39:29;;;;;;;;;;;4.60;99.90;;;;;;5073956;28;20338;-70
2022/01/28 05:41:55;;;;;;;;;;;4.60;99.90;;;;;;5055065;28;19913;-70
2022/01/28 05:44:21;;;;;;;;;;;4.50;99.90;;;;;;5054556;28;19992;-70
2022/01/28 05:46:46;;;;;;;;;;;4.50;99.90;;;;;;5054408;28;20322;-70
2022/01/28 05:49:13;;;;;;;;;;;4.50;99.90;;;;;;5055182;28;20097;-70
2022/01/28 05:51:39;;;;;;;;;;;4.50;99.90;;;;;;5046102;28;19913;-70
2022/01/28 05:54:05;;;;;;;;;;;4.50;99.90;;;;;;5055095;28;19912;-70
2022/01/28 05:56:31;;;;;;;;;;;4.50;99.90;;;;;;5054466;28;19909;-70
2022/01/28 05:58:57;;;;;;;;;;;4.40;99.90;;;;;;5036682;28;19919;-70
2022/01/28 06:01:23;;;;;;;;;;;4.50;99.90;;;;;;5053881;28;20508;-71
2022/01/28 06:03:48;;;;;;;;;;;4.40;99.90;;;;;;5054188;28;19924;-71
2022/01/28 06:06:19;;;;;;;;;;;4.40;99.90;;;;;;5053524;28;19931;-70
2022/01/28 06:08:48;;;;;;;;;;;4.50;99.90;;;;;;5054356;28;19909;-70
2022/01/28 06:11:14;;;;;;;;;;;4.40;99.90;;;;;;5054543;28;20331;-70
2022/01/28 06:13:40;;;;;;;;;;;4.40;99.90;;;;;;5054191;28;19913;-70
2022/01/28 06:16:06;;;;;;;;;;;4.50;99.90;;;;;;5052806;28;19917;-70
2022/01/28 06:18:31;;;;;;;;;;;4.60;99.90;;;;;;5053207;28;19908;-71
2022/01/28 06:20:57;;;;;;;;;;;4.70;99.90;;;;;;5053297;28;19913;-71
2022/01/28 06:23:22;;;;;;;;;;;4.70;99.90;;;;;;5053041;28;19913;-71
2022/01/28 06:25:49;;;;;;;;;;;4.80;99.90;;;;;;5036088;28;19913;-71
2022/01/28 06:28:14;;;;;;;;;;;4.70;99.90;;;;;;5036494;28;19921;-71
2022/01/28 06:30:40;;;;;;;;;;;4.70;99.90;;;;;;5053799;28;19936;-71
2022/01/28 06:33:05;;;;;;;;;;;4.80;99.90;;;;;;5053776;28;19948;-70
2022/01/28 06:35:31;;;;;;;;;;;4.80;99.90;;;;;;5036688;28;19913;-71
2022/01/28 06:37:56;;;;;;;;;;;4.70;99.90;;;;;;5054135;28;19913;-71
2022/01/28 06:40:22;;;;;;;;;;;4.70;99.90;;;;;;5067068;28;20319;-71
2022/01/28 06:42:47;;;;;;;;;;;4.70;99.90;;;;;;5074169;28;19917;-71
2022/01/28 06:45:13;;;;;;;;;;;4.70;99.90;;;;;;5073918;28;20027;-71
2022/01/28 06:47:39;;;;;;;;;;;4.60;99.90;;;;;;5073810;28;20013;-71
2022/01/28 06:50:06;;;;;;;;;;;4.60;99.90;;;;;;5073542;28;19912;-71
2022/01/28 06:52:32;;;;;;;;;;;4.60;99.90;;;;;;5073915;28;19999;-71
2022/01/28 06:54:58;;;;;;;;;;;4.70;99.90;;;;;;5073991;28;20008;-71
2022/01/28 06:57:24;;;;;;;;;;;4.70;99.90;;;;;;5073281;28;20031;-70
2022/01/28 06:59:49;;;;;;;;;;;4.60;99.90;;;;;;5072815;28;20062;-71
2022/01/28 07:02:15;;;;;;;;;;;4.60;99.90;;;;;;5073878;28;19912;-71
2022/01/28 07:04:40;;;;;;;;;;;4.50;99.90;;;;;;5073965;28;19912;-71
2022/01/28 07:07:06;;;;;;;;;;;4.40;99.90;;;;;;5073471;28;19917;-70
2022/01/28 07:09:34;;;;;;;;;;;4.40;99.90;;;;;;5074326;28;19953;-71
2022/01/28 07:11:59;;;;;;;;;;;4.30;99.90;;;;;;5073788;28;20033;-70
2022/01/28 07:14:25;;;;;;;;;;;4.30;99.90;;;;;;5074162;28;20242;-71
2022/01/28 07:16:50;;;;;;;;;;;4.30;99.90;;;;;;5075840;28;19913;-71
2022/01/28 07:19:16;;;;;;;;;;;4.20;99.90;;;;;;5077732;28;19918;-71
2022/01/28 07:21:41;;;;;;;;;;;4.20;99.90;;;;;;5077909;28;19944;-71
2022/01/28 07:24:07;;;;;;;;;;;4.10;99.90;;;;;;5076003;28;19913;-71
2022/01/28 07:26:32;;;;;;;;;;;4.10;99.90;;;;;;5076535;28;19921;-71
2022/01/28 07:28:58;;;;;;;;;;;4.10;99.90;;;;;;5074813;28;19960;-71
2022/01/28 07:31:24;;;;;;;;;;;4.10;99.90;;;;;;5071598;28;19920;-71
2022/01/28 07:33:49;;;;;;;;;;;4.20;99.90;;;;;;5064473;28;19963;-71
2022/01/28 07:36:15;;;;;;;;;;;4.20;99.90;;;;;;5069409;28;20352;-71
2022/01/28 07:38:40;;;;;;;;;;;4.20;99.90;;;;;;5073676;28;19920;-71
2022/01/28 07:41:06;;;;;;;;;;;4.20;99.90;;;;;;5092163;28;19924;-71
2022/01/28 07:43:34;;;;;;;;;;;4.20;99.90;;;;;;5076430;28;20258;-71
2022/01/28 07:46:00;;;;;;;;;;;4.20;99.90;;;;;;5092089;28;19912;-71
2022/01/28 07:48:25;;;;;;;;;;;4.20;99.90;;;;;;5075048;28;19921;-71
2022/01/28 07:50:51;;;;;;;;;;;4.30;99.90;;;;;;5092137;28;19924;-71
2022/01/28 07:53:17;;;;;;;;;;;4.30;99.90;;;;;;5076147;28;19913;-70
2022/01/28 07:55:43;;;;;;;;;;;4.40;99.90;;;;;;5068421;28;19913;-71
2022/01/28 07:58:09;;;;;;;;;;;4.50;99.90;;;;;;5066871;28;19917;-70
2022/01/28 08:00:34;;;;;;;;;;;4.60;99.90;;;;;;5074411;28;19912;-71
2022/01/28 08:03:00;;;;;;;;;;;4.70;99.90;;;;;;5073445;28;20334;-71
2022/01/28 08:05:25;;;;;;;;;;;4.70;99.90;;;;;;5072854;28;19913;-71
2022/01/28 08:07:51;;;;;;;;;;;4.70;99.90;;;;;;5073955;28;19955;-71
2022/01/28 08:10:17;;;;;;;;;;;4.80;99.90;;;;;;5069344;28;20355;-71
2022/01/28 08:12:50;;;;;;;;;;;4.90;99.90;;;;;;5074526;28;20004;-71
2022/01/28 08:15:16;;;;;;;;;;;4.90;99.90;;;;;;5074677;28;19975;-71
2022/01/28 08:17:41;;;;;;;;;;;5.00;99.90;;;;;;5074869;28;19924;-71
2022/01/28 08:20:07;;;;;;;;;;;5.20;99.90;;;;;;5075878;28;20295;-71
2022/01/28 08:22:42;;;;;;;;;;;5.20;99.90;;;;;;5076615;28;19966;-72
2022/01/28 08:25:07;;;;;;;;;;;5.30;99.90;;;;;;5075264;28;19920;-71
2022/01/28 08:27:33;;;;;;;;;;;5.40;99.90;;;;;;5074926;28;19916;-71
2022/01/28 08:29:59;;;;;;;;;;;5.50;99.90;;;;;;5075153;28;19917;-71
2022/01/28 08:32:25;;;;;;;;;;;5.50;99.90;;;;;;5075778;28;20365;-71
2022/01/28 08:34:50;;;;;;;;;;;5.60;99.90;;;;;;5068906;28;19913;-72
2022/01/28 08:37:16;;;;;;;;;;;5.60;99.90;;;;;;5072656;28;19947;-72
2022/01/28 08:39:41;;;;;;;;;;;5.50;99.90;;;;;;5072209;28;19935;-72
2022/01/28 08:42:07;;;;;;;;;;;5.50;99.90;;;;;;5070615;28;19923;-71
2022/01/28 08:44:33;;;;;;;;;;;5.50;99.90;;;;;;5076336;28;20054;-72
2022/01/28 08:46:58;;;;;;;;;;;5.50;99.90;;;;;;5073930;28;20307;-72
2022/01/28 08:49:24;;;;;;;;;;;5.50;99.90;;;;;;5069878;28;19917;-72
2022/01/28 08:51:50;;;;;;;;;;;5.50;99.90;;;;;;5065192;28;19927;-71
2022/01/28 08:54:16;;;;;;;;;;;5.40;99.90;;;;;;5050818;28;19941;-72
2022/01/28 08:56:42;;;;;;;;;;;5.40;99.90;;;;;;5062828;28;19917;-71
2022/01/28 08:59:08;;;;;;;;;;;5.40;99.90;;;;;;5059870;28;20016;-71
2022/01/28 09:01:33;;;;;;;;;;;5.40;99.90;;;;;;5063462;28;20016;-72
2022/01/28 09:03:59;;;;;;;;;;;5.40;99.90;;;;;;5063276;28;20307;-71
2022/01/28 09:06:24;;;;;;;;;;;5.40;99.90;;;;;;5064324;28;19917;-72
2022/01/28 09:08:53;;;;;;;;;;;5.40;99.90;;;;;;5064471;28;19921;-72
2022/01/28 09:13:48;;;;;;;;;;;5.40;99.90;;;;;;5068368;28;19920;-71
2022/01/28 09:16:14;;;;;;;;;;;5.40;99.90;;;;;;5065275;28;19924;-71
2022/01/28 09:18:39;;;;;;;;;;;5.50;99.90;;;;;;5088293;28;19935;-72
2022/01/28 09:21:05;;;;;;;;;;;5.60;99.90;;;;;;5067149;28;19913;-71
2022/01/28 09:23:31;;;;;;;;;;;5.60;99.90;;;;;;5065808;28;21132;-71
2022/01/28 09:25:56;;;;;;;;;;;5.70;99.90;;;;;;5066763;28;19920;-71
2022/01/28 09:28:22;;;;;;;;;;;5.70;99.90;;;;;;5066964;28;20337;-72
2022/01/28 09:30:47;;;;;;;;;;;5.80;99.90;;;;;;5065990;28;19978;-72
2022/01/28 09:33:13;;;;;;;;;;;5.90;99.90;;;;;;5064244;28;19940;-71
2022/01/28 09:35:41;;;;;;;;;;;6.00;99.90;;;;;;5066984;28;19923;-72
2022/01/28 09:38:07;;;;;;;;;;;6.10;99.90;;;;;;5088626;28;19927;-71
2022/01/28 09:40:33;;;;;;;;;;;6.20;99.90;;;;;;5066208;28;19928;-72
2022/01/28 09:43:00;;;;;;;;;;;6.30;99.90;;;;;;5065342;28;19916;-72
2022/01/28 09:45:25;;;;;;;;;;;6.30;99.90;;;;;;5067756;28;20019;-72
2022/01/28 09:47:53;;;;;;;;;;;6.30;99.90;;;;;;5065568;28;20015;-72
2022/01/28 09:50:21;;;;;;;;;;;6.30;99.90;;;;;;5062794;28;20286;-72
2022/01/28 09:52:47;;;;;;;;;;;6.40;99.90;;;;;;5057926;28;19963;-73
2022/01/28 09:55:12;;;;;;;;;;;6.50;99.90;;;;;;5066659;28;19971;-72
2022/01/28 09:57:38;;;;;;;;;;;6.60;99.90;;;;;;5078782;28;20293;-72
2022/01/28 10:00:05;;;;;;;;;;;6.70;99.90;;;;;;5065852;28;19920;-72
2022/01/28 10:02:47;;;;;;;;;;;6.90;99.90;;;;;;5067184;28;20008;-72
2022/01/28 10:05:16;;;;;;;;;;;7.00;99.90;;;;;;5068013;28;19912;-72
2022/01/28 10:07:58;;;;;;;;;;;7.00;99.90;;;;;;5067151;28;20310;-72
2022/01/28 10:10:23;;;;;;;;;;;7.00;99.90;;;;;;5066651;28;19917;-72
2022/01/28 10:13:06;;;;;;;;;;;7.10;99.90;;;;;;5064653;28;19917;-72
2022/01/28 10:15:32;;;;;;;;;;;7.30;99.90;;;;;;5076628;28;19935;-72
2022/01/28 10:18:00;;;;;;;;;;;7.40;99.90;;;;;;5065103;28;19916;-72
2022/01/28 10:20:26;;;;;;;;;;;7.40;99.90;;;;;;5086632;28;20360;-72
2022/01/28 10:22:57;;;;;;;;;;;7.50;99.90;;;;;;5065673;28;20209;-72
2022/01/28 10:25:27;;;;;;;;;;;7.70;99.90;;;;;;5064964;28;20211;-72
2022/01/28 10:28:06;;;;;;;;;;;7.90;99.90;;;;;;5066079;28;19916;-72
2022/01/28 10:30:36;;;;;;;;;;;8.10;99.90;;;;;;5059396;28;19917;-72
2022/01/28 10:33:20;;;;;;;;;;;8.10;99.90;;;;;;5060483;28;19967;-72
2022/01/28 10:35:56;;;;;;;;;;;8.20;99.90;;;;;;5061935;28;19921;-72
2022/01/28 10:38:34;;;;;;;;;;;8.30;99.90;;;;;;5060961;28;19916;-72
2022/01/28 10:41:06;;;;;;;;;;;8.30;99.90;;;;;;5044467;28;19925;-73
2022/01/28 10:43:32;;;;;;;;;;;8.40;99.90;;;;;;5039503;28;19917;-72
2022/01/28 10:46:06;;;;;;;;;;;8.60;99.90;;;;;;5049056;28;19921;-72
2022/01/28 10:48:32;;;;;;;;;;;8.80;99.90;;;;;;5049332;28;19921;-72
2022/01/28 10:50:58;;;;;;;;;;;9.00;99.90;;;;;;5050655;28;20624;-72
2022/01/28 10:53:27;;;;;;;;;;;9.10;99.90;;;;;;5047542;28;19923;-72
2022/01/28 10:55:54;;;;;;;;;;;9.10;99.90;;;;;;5044543;28;19948;-72
2022/01/28 10:58:21;;;;;;;;;;;9.20;99.90;;;;;;5051290;28;19928;-72
2022/01/28 11:00:48;;;;;;;;;;;9.30;99.90;;;;;;5045289;28;20004;-72
2022/01/28 11:03:14;;;;;;;;;;;9.30;99.90;;;;;;5017791;28;20514;-72
2022/01/28 11:05:40;;;;;;;;;;;9.30;99.90;;;;;;5034596;28;19916;-72
2022/01/28 11:08:08;;;;;;;;;;;9.40;99.90;;;;;;5046947;28;19999;-72
2022/01/28 11:10:34;;;;;;;;;;;9.50;99.90;;;;;;5044718;28;19921;-72
2022/01/28 11:13:00;;;;;;;;;;;9.60;99.90;;;;;;5047351;28;19917;-72
2022/01/28 11:15:25;;;;;;;;;;;9.70;99.90;;;;;;5048629;28;19925;-72
2022/01/28 11:17:52;;;;;;;;;;;9.60;99.90;;;;;;5046411;28;19956;-72
2022/01/28 11:20:21;;;;;;;;;;;9.70;99.90;;;;;;5040482;28;19917;-72
2022/01/28 11:22:52;;;;;;;;;;;9.70;99.90;;;;;;5037716;28;19917;-72
2022/01/28 11:25:27;;;;;;;;;;;9.60;99.90;;;;;;5048915;28;19917;-72
2022/01/28 11:27:53;;;;;;;;;;;9.40;99.90;;;;;;5054077;28;19990;-72
2022/01/28 11:30:28;;;;;;;;;;;9.40;99.90;;;;;;5053762;28;20331;-72
2022/01/28 11:33:18;;;;;;;;;;;9.40;99.90;;;;;;5028719;28;19932;-72
2022/01/28 11:35:51;;;;;;;;;;;9.30;99.90;;;;;;5032364;28;19923;-72
2022/01/28 11:38:29;;;;;;;;;;;9.30;99.90;;;;;;5053186;28;19960;-72
2022/01/28 11:40:55;;;;;;;;;;;9.40;99.90;;;;;;5064402;28;20212;-72
2022/01/28 11:43:20;;;;;;;;;;;9.30;99.90;;;;;;5070125;28;19958;-72
2022/01/28 11:45:46;;;;;;;;;;;9.30;99.90;;;;;;5071512;28;19916;-72
2022/01/28 11:48:11;;;;;;;;;;;9.30;99.90;;;;;;5071426;28;19989;-72
2022/01/28 11:50:37;;;;;;;;;;;9.40;99.90;;;;;;5071262;28;20512;-72
2022/01/28 11:53:19;;;;;;;;;;;9.60;99.90;;;;;;5071733;28;19920;-72
2022/01/28 11:55:59;;;;;;;;;;;9.90;99.90;;;;;;5072541;28;19920;-72
2022/01/28 11:58:44;;;;;;;;;;;9.90;99.90;;;;;;5072789;28;19956;-72
2022/01/28 12:01:10;;;;;;;;;;;9.90;99.90;;;;;;5072912;28;19921;-72
2022/01/28 12:03:37;;;;;;;;;;;9.70;99.90;;;;;;5069666;28;19923;-72
2022/01/28 12:06:06;;;;;;;;;;;9.60;99.90;;;;;;5072298;28;19916;-73
2022/01/28 12:08:33;;;;;;;;;;;9.70;99.90;;;;;;5072463;28;19920;-73
2022/01/28 12:11:02;;;;;;;;;;;9.70;99.90;;;;;;5069374;28;19924;-72
2022/01/28 12:13:32;;;;;;;;;;;9.70;99.90;;;;;;5069943;28;19923;-73
2022/01/28 12:16:04;;;;;;;;;;;9.70;99.90;;;;;;5068468;28;19916;-73
2022/01/28 12:18:44;;;;;;;;;;;9.90;99.90;;;;;;5071265;28;19923;-73
2022/01/28 12:21:14;;;;;;;;;;;9.80;99.90;;;;;;5071235;28;19979;-72
2022/01/28 12:23:39;;;;;;;;;;;9.60;99.90;;;;;;5072691;28;19924;-72
2022/01/28 12:26:05;;;;;;;;;;;9.40;99.90;;;;;;5073037;28;19916;-72
2022/01/28 12:28:30;;;;;;;;;;;9.40;99.90;;;;;;5071319;28;19962;-72
2022/01/28 12:31:05;;;;;;;;;;;9.40;99.90;;;;;;5072871;28;19994;-73
2022/01/28 12:33:35;;;;;;;;;;;9.50;99.90;;;;;;5073287;28;19916;-72
2022/01/28 12:36:08;;;;;;;;;;;9.50;99.90;;;;;;5065039;28;20338;-73
2022/01/28 12:38:36;;;;;;;;;;;9.60;99.90;;;;;;5073243;28;20031;-72
2022/01/28 12:41:07;;;;;;;;;;;9.70;99.90;;;;;;5063685;28;19978;-73
2022/01/28 12:43:33;;;;;;;;;;;9.70;99.90;;;;;;5073063;28;19916;-72
2022/01/28 12:45:59;;;;;;;;;;;9.60;99.90;;;;;;5070414;28;19916;-72
2022/01/28 12:48:25;;;;;;;;;;;9.60;99.90;;;;;;5070706;28;19946;-72
2022/01/28 12:50:52;;;;;;;;;;;9.60;99.90;;;;;;5072508;28;19917;-72
2022/01/28 12:53:39;;;;;;;;;;;9.60;99.90;;;;;;5072669;28;20219;-73
2022/01/28 12:56:05;;;;;;;;;;;9.70;99.90;;;;;;5071374;28;19928;-72
2022/01/28 12:58:51;;;;;;;;;;;9.60;99.90;;;;;;5072721;28;19943;-73
2022/01/28 13:01:17;;;;;;;;;;;9.60;99.90;;;;;;5072319;28;19980;-73
2022/01/28 13:03:57;;;;;;;;;;;9.60;99.90;;;;;;5072469;28;19927;-73
2022/01/28 13:08:59;;;;;;;;;;;9.50;99.90;;;;;;5072499;28;20390;-73
2022/01/28 13:11:25;;;;;;;;;;;9.50;99.90;;;;;;5072400;28;19991;-73
2022/01/28 13:13:55;;;;;;;;;;;9.70;99.90;;;;;;5071191;28;19947;-72
2022/01/28 13:16:31;;;;;;;;;;;9.70;99.90;;;;;;5070801;28;20491;-74
2022/01/28 13:18:57;;;;;;;;;;;9.80;99.90;;;;;;5071876;28;19913;-72
2022/01/28 13:21:23;;;;;;;;;;;9.60;99.90;;;;;;5072347;28;19917;-72
2022/01/28 13:23:49;;;;;;;;;;;9.70;99.90;;;;;;5071958;28;19917;-72
2022/01/28 13:26:14;;;;;;;;;;;9.80;99.90;;;;;;5072339;28;19916;-72
2022/01/28 13:28:40;;;;;;;;;;;9.60;99.90;;;;;;5072089;28;19923;-73
2022/01/28 13:31:06;;;;;;;;;;;9.60;99.90;;;;;;5072042;28;19966;-73
2022/01/28 13:33:32;;;;;;;;;;;9.70;99.90;;;;;;5071610;28;20391;-72
2022/01/28 13:35:58;;;;;;;;;;;9.70;99.90;;;;;;5070429;28;19917;-72
2022/01/28 13:38:25;;;;;;;;;;;9.70;99.90;;;;;;5071670;28;19916;-73
2022/01/28 13:40:50;;;;;;;;;;;9.70;99.90;;;;;;5071201;28;19967;-73
2022/01/28 13:43:20;;;;;;;;;;;9.70;99.90;;;;;;5066205;28;21530;-72
2022/01/28 13:45:52;;;;;;;;;;;9.80;99.90;;;;;;5071160;28;19916;-72
2022/01/28 13:48:21;;;;;;;;;;;9.70;99.90;;;;;;5070096;28;19924;-72
2022/01/28 13:50:48;;;;;;;;;;;9.70;99.90;;;;;;5070216;28;19920;-72
2022/01/28 13:55:53;;;;;;;;;;;9.80;99.90;;;;;;5067728;28;20563;-72
2022/01/28 13:58:18;;;;;;;;;;;9.70;99.90;;;;;;5069738;28;19920;-72
2022/01/28 14:00:48;;;;;;;;;;;9.80;99.90;;;;;;5071982;28;19924;-73
2022/01/28 14:03:23;;;;;;;;;;;9.90;99.90;;;;;;5069608;28;19985;-72
2022/01/28 14:05:50;;;;;;;;;;;9.90;99.90;;;;;;5071381;28;20312;-72
2022/01/28 14:08:33;;;;;;;;;;;9.90;99.90;;;;;;5071159;28;19975;-72
2022/01/28 14:10:58;;;;;;;;;;;9.80;99.90;;;;;;5069514;28;20322;-72
2022/01/28 14:13:24;;;;;;;;;;;9.70;99.90;;;;;;5070958;28;19924;-72
2022/01/28 14:16:04;;;;;;;;;;;9.60;99.90;;;;;;5070786;28;19916;-72
2022/01/28 14:18:30;;;;;;;;;;;9.40;99.90;;;;;;5071246;28;20003;-72
2022/01/28 14:20:56;;;;;;;;;;;9.40;99.90;;;;;;5069933;28;20019;-72
2022/01/28 14:23:21;;;;;;;;;;;9.40;99.90;;;;;;5069053;28;19917;-72
2022/01/28 14:25:47;;;;;;;;;;;9.50;99.90;;;;;;5068500;28;19916;-72
2022/01/28 14:28:35;;;;;;;;;;;9.50;99.90;;;;;;5069713;28;19920;-72
2022/01/28 14:31:08;;;;;;;;;;;9.50;99.90;;;;;;5069922;28;19920;-72
2022/01/28 14:33:34;;;;;;;;;;;9.50;99.90;;;;;;5085335;28;19924;-71
2022/01/28 14:35:59;;;;;;;;;;;9.40;99.90;;;;;;5083127;28;20014;-72
2022/01/28 14:38:25;;;;;;;;;;;9.30;99.90;;;;;;5070057;28;19942;-72
2022/01/28 14:40:51;;;;;;;;;;;9.30;99.90;;;;;;5069497;28;20014;-72
2022/01/28 14:43:17;;;;;;;;;;;9.20;99.90;;;;;;5067475;28;19924;-71
2022/01/28 14:45:42;;;;;;;;;;;9.10;99.90;;;;;;5065719;28;19920;-72
2022/01/28 14:48:08;;;;;;;;;;;9.00;99.90;;;;;;5067281;28;20457;-72
2022/01/28 14:50:37;;;;;;;;;;;8.90;99.90;;;;;;5065423;28;20011;-72
2022/01/28 14:53:03;;;;;;;;;;;8.80;99.90;;;;;;5064350;28;19920;-72
2022/01/28 14:55:28;;;;;;;;;;;8.90;99.90;;;;;;5069870;28;19927;-72
2022/01/28 14:57:54;;;;;;;;;;;8.80;99.90;;;;;;5070694;28;20321;-71
2022/01/28 15:00:19;;;;;;;;;;;8.70;99.90;;;;;;5069740;28;20395;-72
2022/01/28 15:02:45;;;;;;;;;;;8.70;99.90;;;;;;5069628;28;19927;-72
2022/01/28 15:05:11;;;;;;;;;;;8.60;99.90;;;;;;5053236;28;20012;-73
2022/01/28 15:07:37;;;;;;;;;;;8.50;99.90;;;;;;5062914;28;19946;-72
2022/01/28 15:10:03;;;;;;;;;;;8.50;99.90;;;;;;5066680;28;19979;-73
2022/01/28 15:12:29;;;;;;;;;;;8.50;99.90;;;;;;5065283;28;19932;-72
2022/01/28 15:14:55;;;;;;;;;;;8.40;99.90;;;;;;5080602;28;19917;-74
2022/01/28 15:17:21;;;;;;;;;;;8.40;99.90;;;;;;5065828;28;19916;-71
2022/01/28 15:19:48;;;;;;;;;;;8.30;99.90;;;;;;5066627;28;19923;-72
2022/01/28 15:22:13;;;;;;;;;;;8.30;99.90;;;;;;5085830;28;19916;-72
2022/01/28 15:24:39;;;;;;;;;;;8.20;99.90;;;;;;5069918;28;19924;-72
2022/01/28 15:27:05;;;;;;;;;;;8.20;99.90;;;;;;5065299;28;20665;-72
2022/01/28 15:35:48;;;;;;;;;;;8.00;99.90;;;;;;5063007;28;19927;-72
2022/01/28 15:37:27;;;;;;;;;;;8.00;99.90;;;;;;5060642;28;19956;-72
2022/01/28 15:39:55;;;;;;;;;;;7.90;99.90;;;;;;5068847;28;19966;-72
2022/01/28 15:42:20;;;;;;;;;;;7.80;99.90;;;;;;5067393;28;19966;-73
2022/01/28 15:44:46;;;;;;;;;;;7.80;99.90;;;;;;5067942;28;19921;-73
2022/01/28 15:47:13;;;;;;;;;;;7.70;99.90;;;;;;5067719;28;19934;-71
2022/01/28 15:49:41;;;;;;;;;;;7.70;99.90;;;;;;5068730;28;20574;-72
2022/01/28 15:52:07;;;;;;;;;;;7.70;99.90;;;;;;5068400;28;19916;-72
2022/01/28 15:54:32;;;;;;;;;;;7.60;99.90;;;;;;5068128;28;19991;-71
2022/01/28 15:56:58;;;;;;;;;;;7.60;99.90;;;;;;5067865;28;20232;-72
2022/01/28 15:59:23;;;;;;;;;;;7.50;99.90;;;;;;5067269;28;19923;-72